Time;durP1;ratioP1;P1;durP2;ratioP2;P2;SDS_P1;SDS_P2;PMS_P1;PMS_P2;Temp;Humidity;BMP_temperature;BMP_pressure;BME280_temperature;BME280_humidity;BME280_pressure;Samples;Min_cycle;Max_cycle;Signal;HPM_P1;HPM_P2
2020/12/07 00:01:49;;;;;;;7.22;5.25;;;;;;;7.24;79.62;93275.00;5030526;28;20025;-54
2020/12/07 00:04:15;;;;;;;8.43;5.35;;;;;;;7.26;79.54;93286.94;5025431;28;20033;-54
2020/12/07 00:06:40;;;;;;;8.57;5.32;;;;;;;7.17;79.40;93284.63;5028114;28;20074;-51
2020/12/07 00:09:06;;;;;;;8.40;5.30;;;;;;;7.22;79.66;93283.78;5035895;28;20077;-54
2020/12/07 00:11:33;;;;;;;9.65;5.90;;;;;;;7.19;79.51;93268.34;5028753;28;20121;-54
2020/12/07 00:13:58;;;;;;;7.07;4.78;;;;;;;7.14;79.89;93268.47;5034901;28;20046;-55
2020/12/07 00:16:24;;;;;;;10.00;5.60;;;;;;;7.11;80.16;93278.50;5030038;28;20032;-53
2020/12/07 00:18:49;;;;;;;7.25;5.13;;;;;;;7.20;79.99;93277.34;5031478;28;20058;-56
2020/12/07 00:21:15;;;;;;;9.80;5.55;;;;;;;7.25;79.63;93276.50;5024286;28;20025;-57
2020/12/07 00:23:41;;;;;;;7.90;5.40;;;;;;;7.06;80.85;93273.16;5029068;28;20049;-57
2020/12/07 00:26:07;;;;;;;8.35;5.30;;;;;;;7.13;80.28;93281.47;5035087;28;20104;-56
2020/12/07 00:28:33;;;;;;;8.30;5.80;;;;;;;7.09;80.69;93286.53;5039209;28;20057;-56
2020/12/07 00:30:59;;;;;;;7.55;4.72;;;;;;;7.14;80.62;93282.22;5032732;28;20512;-57
2020/12/07 00:33:24;;;;;;;7.88;5.25;;;;;;;7.22;80.37;93280.28;5033679;28;20029;-56
2020/12/07 00:35:50;;;;;;;9.38;5.28;;;;;;;7.01;80.81;93279.47;5025280;28;20059;-56
2020/12/07 00:38:15;;;;;;;7.47;5.30;;;;;;;7.03;80.82;93274.94;5030047;28;20028;-57
2020/12/07 00:40:41;;;;;;;9.02;5.40;;;;;;;7.26;80.32;93289.69;5038421;28;20029;-52
2020/12/07 00:43:06;;;;;;;8.80;5.35;;;;;;;7.24;80.35;93278.50;5022688;28;20048;-56
2020/12/07 00:45:31;;;;;;;10.23;5.55;;;;;;;7.25;80.74;93285.47;5044691;28;20035;-55
2020/12/07 00:47:57;;;;;;;8.82;5.80;;;;;;;7.00;81.08;93262.28;5038837;28;20120;-53
2020/12/07 00:50:22;;;;;;;9.18;6.47;;;;;;;7.21;80.95;93273.34;5039061;28;20431;-54
2020/12/07 00:52:48;;;;;;;10.40;5.60;;;;;;;7.20;81.26;93271.84;5033425;28;21710;-55
2020/12/07 00:55:13;;;;;;;10.05;6.72;;;;;;;7.14;81.70;93266.47;5035418;28;20412;-56
2020/12/07 00:57:38;;;;;;;11.40;6.50;;;;;;;7.03;82.12;93274.19;5027640;28;20028;-56
2020/12/07 01:00:06;;;;;;;11.77;6.57;;;;;;;7.03;81.93;93263.97;5038877;28;20033;-56
2020/12/07 01:02:33;;;;;;;11.90;5.97;;;;;;;7.06;82.01;93260.13;5030413;28;20033;-56
2020/12/07 01:04:58;;;;;;;9.00;5.38;;;;;;;7.00;81.74;93254.03;5026774;28;20036;-54
2020/12/07 01:07:24;;;;;;;10.95;6.95;;;;;;;6.86;82.11;93227.88;5041099;28;20029;-56
2020/12/07 01:09:49;;;;;;;9.88;7.20;;;;;;;6.94;82.19;93239.69;5026609;28;20045;-54
2020/12/07 01:12:15;;;;;;;11.43;6.47;;;;;;;6.97;81.87;93226.91;5033946;28;20025;-57
2020/12/07 01:14:40;;;;;;;10.82;5.88;;;;;;;7.05;81.54;93222.25;5030198;28;20425;-56
2020/12/07 01:17:05;;;;;;;9.38;6.30;;;;;;;7.08;81.04;93227.41;5027461;28;20029;-55
2020/12/07 01:19:31;;;;;;;9.23;5.90;;;;;;;7.03;81.26;93228.28;5032097;28;20032;-55
2020/12/07 01:21:56;;;;;;;6.88;5.25;;;;;;;6.97;81.32;93233.16;5031972;28;20029;-57
2020/12/07 01:24:22;;;;;;;8.77;6.00;;;;;;;6.93;81.69;93229.97;5030865;28;20022;-56
2020/12/07 01:26:47;;;;;;;8.07;5.60;;;;;;;6.87;81.26;93193.69;5035719;28;20029;-55
2020/12/07 01:29:12;;;;;;;9.25;6.10;;;;;;;6.97;81.50;93180.25;5038453;28;20041;-56
2020/12/07 01:31:38;;;;;;;10.15;5.70;;;;;;;6.88;81.38;93179.44;5022962;28;20550;-56
2020/12/07 01:34:03;;;;;;;11.07;6.43;;;;;;;6.88;81.52;93170.47;5029147;28;20479;-54
2020/12/07 01:36:29;;;;;;;10.48;6.13;;;;;;;6.82;81.49;93158.88;5024840;28;20025;-55
2020/12/07 01:38:54;;;;;;;12.73;7.07;;;;;;;6.74;81.88;93169.75;5041100;28;20032;-56
2020/12/07 01:41:20;;;;;;;10.38;6.43;;;;;;;6.85;81.90;93161.28;5023711;28;20045;-57
2020/12/07 01:43:46;;;;;;;9.40;6.13;;;;;;;6.89;81.50;93164.44;5023196;28;20130;-55
2020/12/07 01:46:19;;;;;;;13.90;7.28;;;;;;;6.79;81.47;93159.94;5027421;28;20508;-56
2020/12/07 01:48:45;;;;;;;12.48;6.32;;;;;;;6.77;81.70;93165.22;5026842;28;20024;-56
2020/12/07 01:51:11;;;;;;;11.25;5.93;;;;;;;6.79;81.88;93168.16;5040944;28;20130;-56
2020/12/07 01:53:36;;;;;;;14.93;7.07;;;;;;;6.85;81.57;93155.06;5024980;28;20032;-55
2020/12/07 01:56:03;;;;;;;9.23;6.05;;;;;;;6.86;81.53;93167.53;5033527;28;20108;-57
2020/12/07 01:58:28;;;;;;;14.25;6.65;;;;;;;6.91;81.33;93165.94;5029003;28;20033;-55
2020/12/07 02:00:53;;;;;;;11.52;6.90;;;;;;;6.84;81.63;93164.56;5036560;28;20032;-55
2020/12/07 02:03:19;;;;;;;11.23;6.40;;;;;;;6.74;81.60;93166.25;5036080;28;20025;-55
2020/12/07 02:05:44;;;;;;;14.85;7.60;;;;;;;6.81;81.50;93155.38;5035508;28;20029;-56
2020/12/07 02:08:14;;;;;;;9.13;5.60;;;;;;;6.90;80.81;93165.19;5033209;28;20040;-56
2020/12/07 02:10:40;;;;;;;10.52;6.65;;;;;;;6.94;80.39;93156.63;5042958;28;20492;-53
2020/12/07 02:13:06;;;;;;;9.32;6.00;;;;;;;6.74;81.10;93147.06;5025106;28;20029;-55
2020/12/07 02:15:31;;;;;;;11.32;7.32;;;;;;;6.83;80.77;93144.63;5022886;28;20469;-55
2020/12/07 02:17:57;;;;;;;11.40;6.70;;;;;;;6.85;80.51;93149.56;5028602;28;20108;-56
2020/12/07 02:20:22;;;;;;;8.27;5.63;;;;;;;6.85;80.60;93155.06;5043779;28;20025;-55
2020/12/07 02:22:48;;;;;;;6.82;5.03;;;;;;;6.97;79.87;93158.31;5030000;28;20044;-52
2020/12/07 02:25:13;;;;;;;11.82;5.68;;;;;;;6.97;79.96;93164.53;5030258;28;20029;-54
2020/12/07 02:27:38;;;;;;;6.80;5.20;;;;;;;6.85;80.08;93152.31;5025892;28;20021;-54
2020/12/07 02:30:04;;;;;;;10.25;5.13;;;;;;;6.74;80.36;93158.03;5041440;28;20164;-55
2020/12/07 02:32:29;;;;;;;7.75;5.10;;;;;;;6.73;80.75;93153.81;5032600;28;21355;-55
2020/12/07 02:34:55;;;;;;;7.40;5.15;;;;;;;6.80;80.40;93167.63;5043438;28;20021;-55
2020/12/07 02:37:22;;;;;;;15.35;6.05;;;;;;;6.93;80.17;93164.09;5029987;28;20056;-54
2020/12/07 02:39:48;;;;;;;11.13;5.53;;;;;;;6.89;80.03;93163.69;5032996;28;20025;-56
2020/12/07 02:42:13;;;;;;;9.40;5.32;;;;;;;7.01;79.44;93178.66;5028977;28;20026;-55
2020/12/07 02:44:38;;;;;;;12.80;5.95;;;;;;;6.95;79.52;93182.81;5031303;28;20018;-54
2020/12/07 02:47:04;;;;;;;7.00;5.28;;;;;;;6.96;79.54;93184.25;5043422;28;20028;-55
2020/12/07 02:49:29;;;;;;;9.40;5.47;;;;;;;7.02;79.62;93193.84;5031954;27;20052;-54
2020/12/07 02:51:55;;;;;;;10.75;5.88;;;;;;;6.93;79.92;93199.78;5027152;28;20120;-56
2020/12/07 02:54:20;;;;;;;9.40;6.13;;;;;;;6.85;80.92;93198.97;5026581;28;20021;-55
2020/12/07 02:56:45;;;;;;;11.57;5.18;;;;;;;6.93;80.71;93202.53;5026857;27;20029;-55
2020/12/07 02:59:11;;;;;;;8.13;6.07;;;;;;;6.89;80.38;93177.41;5031969;28;20027;-56
2020/12/07 03:01:36;;;;;;;6.75;5.03;;;;;;;6.96;80.32;93201.47;5026951;28;20034;-55
2020/12/07 03:04:02;;;;;;;9.05;6.13;;;;;;;6.93;80.22;93208.00;5028062;28;20039;-56
2020/12/07 03:06:27;;;;;;;10.85;6.60;;;;;;;6.81;80.97;93215.00;5030561;28;20036;-56
2020/12/07 03:08:54;;;;;;;8.55;5.57;;;;;;;6.86;80.90;93205.94;5041658;28;20033;-55
2020/12/07 03:11:21;;;;;;;8.02;4.88;;;;;;;6.87;80.75;93201.91;5038184;28;20500;-55
2020/12/07 03:13:46;;;;;;;7.68;5.68;;;;;;;6.74;81.07;93196.44;5042635;28;20014;-54
2020/12/07 03:16:12;;;;;;;9.25;5.40;;;;;;;6.50;82.37;93194.69;5033057;28;20453;-56
2020/12/07 03:18:37;;;;;;;7.63;4.65;;;;;;;6.55;82.17;93193.84;5033166;28;20535;-56
2020/12/07 03:21:03;;;;;;;11.95;6.78;;;;;;;6.60;82.29;93182.03;5037094;28;20025;-56
2020/12/07 03:23:28;;;;;;;8.70;5.10;;;;;;;6.52;82.45;93172.22;5026124;28;20108;-56
2020/12/07 03:25:53;;;;;;;7.38;5.05;;;;;;;6.59;82.15;93163.34;5035255;28;20562;-57
2020/12/07 03:28:19;;;;;;;7.28;4.97;;;;;;;6.55;81.88;93173.91;5032530;28;20600;-55
2020/12/07 03:30:44;;;;;;;7.40;5.30;;;;;;;6.62;81.97;93162.28;5038789;28;20070;-55
2020/12/07 03:33:10;;;;;;;6.95;4.85;;;;;;;6.64;81.32;93159.75;5031029;28;20057;-56
2020/12/07 03:35:35;;;;;;;5.85;4.57;;;;;;;6.64;81.08;93159.75;5031606;28;20450;-56
2020/12/07 03:38:00;;;;;;;7.88;4.90;;;;;;;6.74;80.19;93164.25;5033026;28;20053;-56
2020/12/07 03:40:26;;;;;;;6.40;4.15;;;;;;;6.67;80.14;93177.91;5026055;28;20046;-55
2020/12/07 03:42:51;;;;;;;6.88;4.80;;;;;;;6.74;79.97;93172.50;5026220;28;20066;-54
2020/12/07 03:45:17;;;;;;;6.57;4.88;;;;;;;6.81;79.99;93174.59;5027272;28;20021;-54
2020/12/07 03:47:42;;;;;;;11.50;6.00;;;;;;;6.75;80.44;93181.47;5036822;28;20105;-54
2020/12/07 03:50:07;;;;;;;8.80;5.40;;;;;;;6.55;80.31;93140.97;5035624;28;20044;-55
2020/12/07 03:52:33;;;;;;;6.97;4.57;;;;;;;6.79;79.49;93168.16;5042543;28;20329;-57
2020/12/07 03:54:58;;;;;;;5.43;4.15;;;;;;;6.87;79.38;93169.72;5027211;28;20100;-54
2020/12/07 03:57:24;;;;;;;7.60;4.13;;;;;;;6.92;79.15;93168.13;5024723;28;20120;-56
2020/12/07 03:59:49;;;;;;;8.48;4.95;;;;;;;6.88;79.52;93178.69;5027120;28;20026;-56
2020/12/07 04:02:15;;;;;;;11.45;4.65;;;;;;;6.96;78.69;93163.06;5037980;28;20488;-56
2020/12/07 04:04:49;;;;;;;7.45;4.05;;;;;;;6.85;78.75;93175.00;5032481;28;20033;-55
2020/12/07 04:07:15;;;;;;;6.78;3.75;;;;;;;6.80;78.91;93169.63;5038816;28;20408;-55
2020/12/07 04:09:40;;;;;;;8.20;4.72;;;;;;;6.91;78.75;93174.88;5028988;28;20029;-54
2020/12/07 04:12:05;;;;;;;5.50;4.20;;;;;;;6.92;78.58;93170.88;5025472;28;20075;-56
2020/12/07 04:14:31;;;;;;;8.73;5.30;;;;;;;6.94;79.00;93173.81;5036135;28;20025;-56
2020/12/07 04:16:56;;;;;;;7.00;4.85;;;;;;;6.93;79.07;93163.38;5040070;28;20028;-56
2020/12/07 04:19:22;;;;;;;6.78;4.72;;;;;;;7.05;77.98;93176.34;5027512;28;20045;-54
2020/12/07 04:21:47;;;;;;;6.68;4.43;;;;;;;7.14;77.67;93184.13;5035822;28;20519;-56
2020/12/07 04:24:12;;;;;;;10.55;6.18;;;;;;;7.15;77.63;93177.34;5031804;28;20025;-56
2020/12/07 04:26:38;;;;;;;8.15;5.30;;;;;;;7.06;78.33;93177.78;5033143;28;20017;-56
2020/12/07 04:29:04;;;;;;;7.25;3.80;;;;;;;7.08;77.30;93152.56;5037900;28;20425;-56
2020/12/07 04:31:29;;;;;;;7.50;4.90;;;;;;;7.14;77.29;93172.41;5026335;27;20405;-57
2020/12/07 04:33:54;;;;;;;9.43;4.80;;;;;;;7.00;77.54;93170.94;5031366;28;20036;-57
2020/12/07 04:36:20;;;;;;;8.75;4.80;;;;;;;6.93;77.83;93179.84;5041895;28;20449;-56
2020/12/07 04:38:45;;;;;;;9.07;4.93;;;;;;;6.95;78.36;93175.31;5037649;28;20854;-55
2020/12/07 04:41:11;;;;;;;8.70;4.85;;;;;;;7.01;77.81;93164.94;5027596;28;20716;-55
2020/12/07 04:43:37;;;;;;;5.90;4.10;;;;;;;7.00;77.79;93162.72;5041255;28;20069;-55
2020/12/07 04:46:03;;;;;;;5.88;4.03;;;;;;;6.92;77.51;93143.44;5028718;28;20021;-55
2020/12/07 04:48:29;;;;;;;6.13;4.05;;;;;;;6.93;78.19;93155.16;5026992;28;20404;-55
2020/12/07 04:50:55;;;;;;;8.07;4.95;;;;;;;6.99;78.14;93148.28;5039652;28;20461;-55
2020/12/07 04:53:21;;;;;;;11.32;4.57;;;;;;;7.04;77.95;93150.13;5026603;28;20028;-56
2020/12/07 04:55:46;;;;;;;6.07;4.22;;;;;;;7.14;77.95;93151.19;5034413;28;20428;-56
2020/12/07 04:58:14;;;;;;;8.45;5.25;;;;;;;7.15;77.63;93138.16;5039231;28;20021;-54
2020/12/07 05:00:40;;;;;;;19.98;9.10;;;;;;;7.23;77.27;93152.72;5037127;28;20033;-56
2020/12/07 05:03:06;;;;;;;6.97;5.00;;;;;;;7.23;76.98;93164.44;5029978;28;20023;-55
2020/12/07 05:05:31;;;;;;;7.68;4.40;;;;;;;7.23;76.96;93160.97;5027400;28;20021;-56
2020/12/07 05:07:57;;;;;;;6.53;4.10;;;;;;;7.23;76.74;93158.22;5024745;28;20451;-52
2020/12/07 05:10:32;;;;;;;7.18;4.78;;;;;;;7.26;77.11;93149.63;5026309;28;20562;-56
2020/12/07 05:13:09;;;;;;;7.60;4.03;;;;;;;7.03;77.12;93156.91;5027795;28;20484;-50
2020/12/07 05:15:39;;;;;;;6.57;4.45;;;;;;;7.04;77.38;93147.41;5025779;28;20030;-55
2020/12/07 05:18:05;;;;;;;6.28;4.72;;;;;;;6.98;77.29;93146.78;5031266;28;20036;-55
2020/12/07 05:20:30;;;;;;;7.35;4.50;;;;;;;6.96;77.43;93143.84;5028282;28;20033;-56
2020/12/07 05:22:56;;;;;;;6.65;4.20;;;;;;;7.01;77.88;93136.75;5026397;28;20104;-53
2020/12/07 05:25:21;;;;;;;8.93;4.80;;;;;;;7.05;77.96;93145.41;5024798;28;20628;-54
2020/12/07 05:27:48;;;;;;;7.57;4.97;;;;;;;6.95;77.89;93134.16;5025902;28;21817;-56
2020/12/07 05:30:27;;;;;;;8.20;4.63;;;;;;;7.04;78.08;93154.91;5028346;28;20049;-56
2020/12/07 05:32:53;;;;;;;8.00;4.00;;;;;;;6.98;77.85;93149.53;5029209;28;20408;-55
2020/12/07 05:35:18;;;;;;;7.32;4.07;;;;;;;7.00;78.09;93149.72;5038728;28;20029;-54
2020/12/07 05:37:44;;;;;;;7.90;5.55;;;;;;;6.91;78.23;93136.47;5040853;28;20036;-54
2020/12/07 05:40:12;;;;;;;9.68;4.50;;;;;;;7.01;77.68;93139.50;5038792;28;20029;-56
2020/12/07 05:42:38;;;;;;;5.53;4.15;;;;;;;6.86;78.04;93137.34;5019456;28;20079;-56
2020/12/07 05:45:05;;;;;;;6.38;4.30;;;;;;;6.74;78.32;93138.81;5024611;28;20029;-56
2020/12/07 05:47:32;;;;;;;6.25;3.85;;;;;;;6.73;79.03;93153.81;5030357;28;20549;-56
2020/12/07 05:49:59;;;;;;;6.40;4.20;;;;;;;6.68;79.07;93158.16;5031500;28;20416;-55
2020/12/07 05:52:46;;;;;;;6.30;4.60;;;;;;;6.54;79.83;93170.41;5029402;28;20033;-56
2020/12/07 05:55:13;;;;;;;12.38;4.97;;;;;;;6.60;79.38;93162.81;5037917;28;20045;-55
2020/12/07 05:58:01;;;;;;;12.85;5.30;;;;;;;6.68;79.37;93169.13;5035188;28;20107;-52
2020/12/07 06:00:30;;;;;;;7.83;4.97;;;;;;;6.70;79.25;93174.81;5023451;28;20021;-56
2020/12/07 06:02:55;;;;;;;7.13;3.78;;;;;;;6.64;79.72;93174.22;5023844;28;21108;-55
2020/12/07 06:05:22;;;;;;;8.05;4.63;;;;;;;6.68;79.18;93182.09;5023580;28;20021;-56
2020/12/07 06:07:55;;;;;;;7.55;3.97;;;;;;;6.73;78.79;93170.28;5039748;28;20035;-57
2020/12/07 06:10:22;;;;;;;6.85;4.28;;;;;;;6.82;78.18;93158.88;5026860;28;20022;-57
2020/12/07 06:12:49;;;;;;;7.95;4.78;;;;;;;6.80;78.39;93153.16;5036632;28;20020;-58
2020/12/07 06:15:19;;;;;;;7.72;4.22;;;;;;;6.77;78.05;93154.97;5024652;28;20445;-58
2020/12/07 06:17:50;;;;;;;6.28;4.57;;;;;;;6.69;78.71;93153.41;5024155;28;20044;-57
2020/12/07 06:20:36;;;;;;;7.28;4.35;;;;;;;6.69;78.62;93176.09;5043106;28;20049;-57
2020/12/07 06:23:01;;;;;;;7.15;4.13;;;;;;;6.81;78.07;93169.09;5036526;28;20042;-56
2020/12/07 06:25:31;;;;;;;7.75;4.30;;;;;;;6.68;78.47;93163.66;5037506;28;20032;-57
2020/12/07 06:28:01;;;;;;;8.38;4.30;;;;;;;6.62;78.56;93162.28;5038869;28;20612;-57
2020/12/07 06:30:36;;;;;;;8.50;4.57;;;;;;;6.64;78.72;93152.25;5039152;28;20045;-57
2020/12/07 06:33:08;;;;;;;7.07;5.03;;;;;;;6.64;78.49;93138.56;5025754;28;20033;-58
2020/12/07 06:35:45;;;;;;;9.15;5.13;;;;;;;6.56;78.98;93145.22;5029217;28;20033;-57
2020/12/07 06:38:10;;;;;;;9.27;4.95;;;;;;;6.59;78.91;93144.88;5023886;28;20043;-57
2020/12/07 06:40:37;;;;;;;6.25;4.35;;;;;;;6.52;79.03;93142.78;5028148;28;20029;-58
2020/12/07 06:43:22;;;;;;;8.35;4.97;;;;;;;6.57;79.64;93138.44;5031884;28;20036;-58
2020/12/07 06:45:54;;;;;;;10.13;4.90;;;;;;;6.67;79.21;93136.75;5031252;28;20029;-58
2020/12/07 06:51:44;;;;;;;9.90;5.05;;;;;;;6.64;79.34;93135.06;5031828;28;20032;-57
2020/12/07 06:55:03;;;;;;;6.80;4.90;;;;;;;6.70;78.76;93119.97;5031441;28;20032;-56
2020/12/07 06:56:56;;;;;;;8.35;5.18;;;;;;;6.64;78.71;93115.84;5030644;28;20057;-57
2020/12/07 06:59:21;;;;;;;8.65;4.63;;;;;;;6.70;78.94;93113.72;5030668;28;20034;-57
2020/12/07 07:01:51;;;;;;;8.88;5.32;;;;;;;6.71;79.14;93121.41;5028887;27;20034;-55
2020/12/07 07:04:19;;;;;;;;;;;;;;;6.84;78.05;93129.63;5027793;28;20408;-56
2020/12/07 07:06:44;;;;;;;9.93;4.27;;;;;;;6.73;78.47;93129.13;5026726;27;19916;-57
2020/12/07 07:09:10;;;;;;;7.50;4.95;;;;;;;6.63;79.16;93128.84;5030845;28;20035;-56
2020/12/07 07:11:35;;;;;;;8.40;5.28;;;;;;;6.57;79.33;93130.97;5040701;28;20025;-57
2020/12/07 07:14:01;;;;;;;8.80;4.63;;;;;;;6.53;79.84;93138.78;5038517;28;20032;-56
2020/12/07 07:16:26;;;;;;;7.45;5.22;;;;;;;6.58;79.41;93132.41;5024460;27;20037;-56
2020/12/07 07:18:52;;;;;;;8.05;4.13;;;;;;;6.53;79.56;93129.81;5030635;28;20021;-56
2020/12/07 07:21:17;;;;;;;9.75;4.50;;;;;;;6.47;80.38;93134.66;5041926;27;20053;-55
2020/12/07 07:23:43;;;;;;;9.02;4.88;;;;;;;6.52;80.35;93142.78;5037519;28;20080;-55
2020/12/07 07:26:21;;;;;;;9.13;5.80;;;;;;;6.39;81.23;93128.38;5022718;28;20033;-54
2020/12/07 07:28:47;;;;;;;9.63;4.57;;;;;;;6.42;81.61;93125.28;5031869;27;20041;-55
2020/12/07 07:31:13;;;;;;;7.68;4.65;;;;;;;6.40;81.44;93133.31;5041648;28;20112;-56
2020/12/07 07:33:39;;;;;;;6.25;4.65;;;;;;;6.31;82.54;93122.03;5026149;28;20104;-58
2020/12/07 07:36:04;;;;;;;7.25;4.80;;;;;;;6.30;82.81;93134.28;5030592;28;20047;-56
2020/12/07 07:38:31;;;;;;;5.65;3.60;;;;;;;6.26;82.55;93126.34;5036265;28;20415;-55
2020/12/07 07:40:57;;;;;;;8.00;4.50;;;;;;;6.29;82.53;93127.31;5030387;28;20033;-58
2020/12/07 07:43:24;;;;;;;8.02;4.63;;;;;;;6.31;82.51;93130.25;5035977;28;20036;-56
2020/12/07 07:45:56;;;;;;;9.18;4.57;;;;;;;6.25;82.54;93124.16;5034688;28;20112;-57
2020/12/07 07:48:37;;;;;;;7.05;4.32;;;;;;;6.36;82.30;93123.94;5036862;28;20028;-58
2020/12/07 08:17:52;;;;;;;11.45;5.43;;;;;;;6.27;81.54;93116.88;5024673;28;20060;-57
2020/12/07 08:20:19;;;;;;;9.13;5.15;;;;;;;6.25;81.82;93121.41;5024763;27;20030;-56
2020/12/07 08:23:01;;;;;;;14.90;6.15;;;;;;;6.27;81.46;93130.56;5026475;28;20454;-56
2020/12/07 08:25:55;;;;;;;11.70;5.00;;;;;;;6.30;81.50;93126.03;5026402;28;20074;-57
2020/12/07 08:28:24;;;;;;;7.22;3.95;;;;;;;6.43;80.81;93126.75;5027551;28;20013;-57
2020/12/07 08:31:17;;;;;;;11.50;5.93;;;;;;;6.37;80.97;93122.66;5022802;28;20022;-57
2020/12/07 08:34:14;;;;;;;8.95;5.57;;;;;;;6.36;80.44;93130.16;5026917;28;20101;-57
2020/12/07 08:36:45;;;;;;;7.60;4.88;;;;;;;6.47;80.21;93127.19;5029081;28;20026;-56
2020/12/07 08:39:10;;;;;;;11.18;5.38;;;;;;;6.22;80.00;93084.06;5023838;28;20089;-57
2020/12/07 08:41:36;;;;;;;8.77;5.03;;;;;;;6.57;79.90;93127.47;5024928;28;20036;-57
2020/12/07 08:44:04;;;;;;;7.68;4.95;;;;;;;6.67;79.01;93115.53;5028781;28;20500;-54
2020/12/07 08:46:32;;;;;;;8.52;5.28;;;;;;;6.58;79.14;93115.25;5020553;27;20041;-57
2020/12/07 08:49:00;;;;;;;6.65;4.40;;;;;;;6.50;78.88;93112.41;5022159;28;20033;-58
2020/12/07 08:51:27;;;;;;;6.70;4.45;;;;;;;6.60;78.72;93110.72;5037556;28;20785;-56
2020/12/07 08:53:53;;;;;;;7.88;4.32;;;;;;;6.51;78.81;93113.16;5029535;28;20112;-58
2020/12/07 08:56:18;;;;;;;9.73;4.55;;;;;;;6.46;78.41;93117.47;5041759;28;20112;-56
2020/12/07 08:58:44;;;;;;;7.80;4.55;;;;;;;6.37;79.01;93100.72;5027487;28;20064;-57
2020/12/07 09:01:50;;;;;;;7.97;4.43;;;;;;;6.35;79.48;93084.06;5023811;27;20034;-56
2020/12/07 09:04:15;;;;;;;8.30;4.70;;;;;;;6.20;79.95;93092.09;5426253;22;20014;-72
2020/12/07 09:06:41;;;;;;;10.65;4.75;;;;;;;6.34;79.51;93099.03;5040903;28;20045;-72
2020/12/07 09:09:09;;;;;;;12.27;5.78;;;;;;;6.24;79.86;93095.28;5041656;28;20025;-72
2020/12/07 09:11:35;;;;;;;7.90;4.78;;;;;;;6.30;79.89;93088.41;5025282;28;20099;-71
2020/12/07 09:14:01;;;;;;;14.52;6.18;;;;;;;6.20;80.63;93081.13;5047593;28;20135;-72
2020/12/07 09:16:27;;;;;;;9.02;3.85;;;;;;;6.29;80.22;93086.19;5025900;28;20032;-74
2020/12/07 09:18:52;;;;;;;7.57;4.70;;;;;;;6.35;80.46;93090.28;5053376;28;20020;-72
2020/12/07 09:21:18;;;;;;;9.80;6.43;;;;;;;6.09;80.77;93058.16;5023225;28;20439;-71
2020/12/07 09:23:43;;;;;;;7.78;4.40;;;;;;;6.37;80.78;93078.78;5041843;28;20424;-69
2020/12/07 09:26:09;;;;;;;10.75;4.85;;;;;;;6.19;81.07;93069.44;5020657;28;20404;-69
2020/12/07 09:28:36;;;;;;;12.93;5.07;;;;;;;6.37;81.51;93076.78;5042987;28;20025;-68
2020/12/07 09:31:02;;;;;;;12.20;6.05;;;;;;;6.25;81.74;93069.31;5025178;28;20094;-69
2020/12/07 09:33:27;;;;;;;9.50;5.40;;;;;;;6.35;81.98;93076.56;5024924;28;20025;-70
2020/12/07 09:35:53;;;;;;;9.75;5.32;;;;;;;6.37;82.06;93076.78;5037900;28;20052;-70
2020/12/07 09:38:18;;;;;;;11.13;5.80;;;;;;;6.13;82.45;93063.31;5022007;28;20160;-68
2020/12/07 09:40:44;;;;;;;14.07;5.95;;;;;;;6.10;83.41;93054.19;5038749;28;20142;-70
2020/12/07 09:43:09;;;;;;;9.13;5.40;;;;;;;6.02;83.10;93047.84;5032531;28;20073;-72
2020/12/07 09:45:35;;;;;;;9.90;5.47;;;;;;;6.00;83.55;93044.16;5018832;28;20044;-68
2020/12/07 09:48:00;;;;;;;12.68;5.40;;;;;;;5.85;83.87;93033.75;5039728;28;20021;-69
2020/12/07 09:50:26;;;;;;;8.10;4.45;;;;;;;6.10;82.89;93039.72;5041157;28;20039;-69
2020/12/07 09:52:52;;;;;;;7.95;4.95;;;;;;;5.98;82.59;93025.50;5023774;28;20087;-72
2020/12/07 09:55:17;;;;;;;10.57;5.68;;;;;;;6.20;82.76;93040.75;5050991;28;20032;-70
2020/12/07 09:57:43;;;;;;;9.27;4.88;;;;;;;6.17;82.87;93030.13;5046080;28;20082;-70
2020/12/07 10:00:08;;;;;;;8.60;4.60;;;;;;;6.25;82.56;93026.19;5044989;28;20825;-72
2020/12/07 10:02:35;;;;;;;8.57;5.55;;;;;;;6.33;82.19;93016.06;5026827;28;20029;-73
2020/12/07 10:05:01;;;;;;;7.47;4.70;;;;;;;6.49;81.72;93033.41;5050310;28;20395;-70
2020/12/07 10:07:26;;;;;;;9.15;5.25;;;;;;;6.26;82.40;92997.50;5030554;28;20032;-73
2020/12/07 10:09:52;;;;;;;10.32;4.88;;;;;;;6.29;81.23;92987.50;5055115;28;20046;-76
2020/12/07 10:12:17;;;;;;;7.95;4.97;;;;;;;6.65;81.18;93026.78;5029180;28;20116;-70
2020/12/07 10:14:43;;;;;;;10.10;6.07;;;;;;;6.39;80.46;92983.75;5047943;28;20032;-72
2020/12/07 10:17:08;;;;;;;9.35;5.20;;;;;;;6.63;81.57;93015.63;5059358;28;20087;-76
2020/12/07 10:19:34;;;;;;;10.48;5.43;;;;;;;6.77;80.08;93015.06;5047706;28;20411;-74
2020/12/07 10:22:04;;;;;;;6.25;4.20;;;;;;;6.81;79.08;93009.97;5048662;28;20064;-74
2020/12/07 10:24:30;;;;;;;7.90;4.50;;;;;;;6.65;80.04;93013.09;5050387;28;20029;-74
2020/12/07 10:26:56;;;;;;;9.05;4.22;;;;;;;6.65;80.52;92993.88;5047997;28;20033;-75
2020/12/07 10:29:21;;;;;;;10.70;4.97;;;;;;;6.55;79.14;92974.41;5054457;28;20028;-76
2020/12/07 10:31:47;;;;;;;9.05;4.50;;;;;;;6.76;79.66;93005.34;5042226;28;20025;-75
2020/12/07 10:34:12;;;;;;;5.18;3.28;;;;;;;6.58;80.01;92997.31;5048641;28;20408;-76
2020/12/07 10:36:38;;;;;;;6.50;3.92;;;;;;;6.66;79.24;93009.09;5025458;28;20386;-76
2020/12/07 10:39:06;;;;;;;5.82;4.20;;;;;;;6.53;79.43;92987.19;5050356;28;20376;-76
2020/12/07 10:41:31;;;;;;;8.63;3.45;;;;;;;6.65;78.62;92983.66;5046182;28;20036;-79
2020/12/07 10:44:03;;;;;;;4.68;3.42;;;;;;;6.59;78.88;92968.59;5028376;28;20040;-83
2020/12/07 10:46:28;;;;;;;5.80;3.45;;;;;;;6.58;79.33;92992.53;5049343;28;20055;-78
2020/12/07 10:48:54;;;;;;;5.40;3.20;;;;;;;6.63;79.93;92994.44;5053675;28;20096;-79
2020/12/07 10:51:19;;;;;;;9.85;3.80;;;;;;;6.45;79.33;92962.44;5050190;28;20075;-81
2020/12/07 10:53:46;;;;;;;7.75;3.83;;;;;;;6.62;79.49;92973.75;5053613;28;20035;-80
2020/12/07 10:56:13;;;;;;;6.55;3.85;;;;;;;6.64;79.82;92984.19;5055292;28;20029;-80
2020/12/07 10:58:39;;;;;;;5.82;3.25;;;;;;;6.41;79.53;92950.34;5031059;28;20518;-80
2020/12/07 11:01:06;;;;;;;6.88;3.17;;;;;;;6.56;79.07;92964.91;5026236;28;20025;-78
2020/12/07 11:03:31;;;;;;;5.53;3.15;;;;;;;6.59;79.40;92965.84;5043798;28;20047;-69
2020/12/07 11:05:57;;;;;;;6.43;3.65;;;;;;;6.42;79.01;92949.06;5045876;28;20124;-71
2020/12/07 11:08:33;;;;;;;8.18;4.38;;;;;;;6.44;79.65;92966.44;5039152;28;20509;-67
2020/12/07 11:10:59;;;;;;;5.30;3.50;;;;;;;6.56;79.61;92966.94;5041761;28;20033;-73
2020/12/07 11:13:28;;;;;;;9.02;4.40;;;;;;;6.52;79.96;92945.31;5042672;28;20027;-73
2020/12/07 11:15:57;;;;;;;7.07;4.13;;;;;;;6.62;79.34;92962.06;5028958;28;20036;-73
2020/12/07 11:18:22;;;;;;;4.32;3.17;;;;;;;6.58;79.26;92961.66;5027923;28;20051;-73
2020/12/07 11:20:48;;;;;;;4.32;2.83;;;;;;;6.66;78.63;92954.97;5044877;28;20115;-73
2020/12/07 11:23:13;;;;;;;4.15;3.30;;;;;;;6.73;77.62;92965.28;5026883;28;20033;-73
2020/12/07 11:25:39;;;;;;;4.55;3.17;;;;;;;6.52;77.68;92926.13;5026650;28;20024;-73
2020/12/07 11:28:04;;;;;;;3.97;2.38;;;;;;;6.75;77.58;92932.56;5040895;28;20051;-72
2020/12/07 11:30:30;;;;;;;5.85;3.47;;;;;;;6.89;77.90;92938.69;5025677;28;20025;-72
2020/12/07 11:32:55;;;;;;;8.18;3.72;;;;;;;6.73;78.86;92935.09;5039686;28;20035;-72
2020/12/07 11:35:21;;;;;;;3.78;3.03;;;;;;;6.81;77.93;92929.66;5053691;28;20020;-72
2020/12/07 11:37:52;;;;;;;10.60;5.78;;;;;;;6.67;78.46;92914.56;5029469;28;20139;-73
2020/12/07 11:40:33;;;;;;;4.50;2.90;;;;;;;6.67;78.37;92911.81;5027359;28;20079;-70
2020/12/07 11:43:15;;;;;;;4.53;3.00;;;;;;;6.92;79.52;92906.69;5054170;28;20067;-71
2020/12/07 11:45:41;;;;;;;6.97;2.83;;;;;;;7.07;78.34;92920.50;5044595;28;20028;-72
2020/12/07 11:48:08;;;;;;;4.32;3.03;;;;;;;6.93;75.53;92867.72;5042821;28;20064;-72
2020/12/07 11:50:34;;;;;;;3.45;2.42;;;;;;;7.24;75.48;92898.84;5027290;28;20500;-74
2020/12/07 11:52:59;;;;;;;3.90;2.30;;;;;;;7.15;75.51;92902.06;5046075;28;20104;-74
2020/12/07 11:55:24;;;;;;;2.63;2.30;;;;;;;7.11;75.10;92898.94;5045570;28;20017;-74
2020/12/07 11:57:50;;;;;;;2.47;1.98;;;;;;;7.08;75.11;92908.28;5040138;28;20021;-74
2020/12/07 12:00:15;;;;;;;2.85;2.00;;;;;;;7.08;74.77;92880.81;5042752;28;20106;-74
2020/12/07 12:02:41;;;;;;;1.63;1.50;;;;;;;7.10;74.66;92870.78;5036640;28;20463;-75
2020/12/07 12:05:06;;;;;;;3.38;2.15;;;;;;;7.37;74.12;92893.25;5044749;28;20040;-75
2020/12/07 12:07:32;;;;;;;4.90;3.35;;;;;;;7.26;75.38;92891.53;5042207;28;20060;-74
2020/12/07 12:09:58;;;;;;;3.60;1.80;;;;;;;7.36;73.81;92895.25;5052556;28;20048;-73